createdAt,value
2022-11-09T00:01:42.734Z,7.18
2022-11-09T00:04:14.419Z,7.17
2022-11-09T00:06:42.499Z,7.18
2022-11-09T00:09:11.537Z,7.18
2022-11-09T00:11:39.541Z,7.17
2022-11-09T00:14:07.437Z,7.16
2022-11-09T00:16:35.220Z,7.16
2022-11-09T00:19:06.545Z,7.15
2022-11-09T00:21:34.547Z,7.14
2022-11-09T00:24:02.475Z,7.13
2022-11-09T00:26:30.584Z,7.12
2022-11-09T00:28:58.670Z,7.10
2022-11-09T00:31:30.053Z,7.10
2022-11-09T00:34:01.477Z,7.09
2022-11-09T00:36:33.147Z,7.10
2022-11-09T00:39:04.518Z,7.09
2022-11-09T00:41:32.580Z,7.08
2022-11-09T00:44:00.592Z,7.07
2022-11-09T00:46:31.454Z,7.07
2022-11-09T00:49:02.880Z,7.07
2022-11-09T00:51:33.769Z,7.07
2022-11-09T00:54:01.709Z,7.06
2022-11-09T00:56:29.450Z,7.05
2022-11-09T00:59:00.746Z,7.05
2022-11-09T01:01:31.838Z,7.05
2022-11-09T01:04:02.986Z,7.04
2022-11-09T01:06:34.360Z,7.03
2022-11-09T01:09:06.190Z,7.02
2022-11-09T01:11:34.130Z,7.01
2022-11-09T01:14:02.686Z,7.01
2022-11-09T01:16:30.431Z,7.00
2022-11-09T01:19:02.210Z,7.01
2022-11-09T01:21:30.041Z,6.99
2022-11-09T01:24:02.019Z,6.99
2022-11-09T01:26:31.449Z,6.98
2022-11-09T01:28:59.692Z,6.97
2022-11-09T01:31:27.588Z,6.97
2022-11-09T01:33:55.658Z,6.98
2022-11-09T01:36:25.045Z,6.98
2022-11-09T01:38:52.942Z,6.98
2022-11-09T01:41:24.965Z,6.98
2022-11-09T01:44:21.866Z,6.98
2022-11-09T01:47:27.036Z,6.98
2022-11-09T01:50:00.216Z,6.97
2022-11-09T01:52:42.670Z,6.96
2022-11-09T01:55:18.514Z,6.96
2022-11-09T01:58:00.931Z,6.97
2022-11-09T02:00:30.030Z,6.98
2022-11-09T02:03:15.720Z,6.97
2022-11-09T02:05:44.498Z,6.96
2022-11-09T02:08:16.239Z,6.94
2022-11-09T02:10:49.607Z,6.93
2022-11-09T02:13:21.308Z,6.92
2022-11-09T02:15:49.785Z,6.92
2022-11-09T02:18:18.064Z,6.89
2022-11-09T02:20:58.222Z,6.88
2022-11-09T02:23:27.228Z,6.86
2022-11-09T02:26:00.298Z,6.86
2022-11-09T02:28:29.025Z,6.88
2022-11-09T02:30:57.871Z,6.89
2022-11-09T02:33:25.658Z,6.88
2022-11-09T02:35:53.401Z,6.87
2022-11-09T02:38:21.379Z,6.86
2022-11-09T02:40:51.793Z,6.88
2022-11-09T02:43:20.046Z,6.88
2022-11-09T02:45:48.242Z,6.91
2022-11-09T02:48:16.108Z,6.94
2022-11-09T02:50:43.834Z,6.97
2022-11-09T02:53:11.588Z,6.99
2022-11-09T02:55:39.289Z,7.01
2022-11-09T02:58:07.167Z,7.02
2022-11-09T03:00:35.126Z,7.02
2022-11-09T03:03:04.406Z,7.03
2022-11-09T03:05:32.199Z,7.03
2022-11-09T03:08:02.537Z,7.04
2022-11-09T03:10:30.487Z,7.05
2022-11-09T03:12:58.250Z,7.03
2022-11-09T03:15:25.999Z,7.04
2022-11-09T03:17:53.678Z,7.05
2022-11-09T03:20:21.441Z,7.07
2022-11-09T03:22:49.206Z,7.09
2022-11-09T03:25:16.891Z,7.10
2022-11-09T03:27:44.869Z,7.10
2022-11-09T03:30:12.902Z,7.12
2022-11-09T03:32:40.769Z,7.13
2022-11-09T03:35:09.250Z,7.15
2022-11-09T03:37:37.048Z,7.15
2022-11-09T03:40:05.700Z,7.16
2022-11-09T03:42:33.457Z,7.15
2022-11-09T03:45:01.149Z,7.15
2022-11-09T03:47:28.855Z,7.14
2022-11-09T03:49:56.651Z,7.14
2022-11-09T03:52:24.415Z,7.15
2022-11-09T03:54:52.106Z,7.15
2022-11-09T03:57:19.826Z,7.16
2022-11-09T03:59:47.520Z,7.17
2022-11-09T04:02:15.317Z,7.19
2022-11-09T04:04:43.108Z,7.20
2022-11-09T04:07:11.561Z,7.22
2022-11-09T04:09:39.400Z,7.23
2022-11-09T04:12:07.574Z,7.25
2022-11-09T04:14:35.286Z,7.27
2022-11-09T04:17:03.089Z,7.27
2022-11-09T04:19:30.841Z,7.28
2022-11-09T04:21:58.604Z,7.29
2022-11-09T04:24:26.366Z,7.29
2022-11-09T04:26:54.130Z,7.30
2022-11-09T04:29:21.912Z,7.32
2022-11-09T04:31:50.786Z,7.34
2022-11-09T04:34:18.946Z,7.35
2022-11-09T04:36:55.219Z,7.34
2022-11-09T04:39:23.045Z,7.33
2022-11-09T04:41:50.750Z,7.32
2022-11-09T04:44:18.691Z,7.30
2022-11-09T04:46:46.481Z,7.29
2022-11-09T04:49:14.353Z,7.27
2022-11-09T04:51:42.044Z,7.26
2022-11-09T04:54:11.238Z,7.26
2022-11-09T04:56:39.043Z,7.25
2022-11-09T04:59:06.939Z,7.24
2022-11-09T05:01:34.689Z,7.23
2022-11-09T05:04:02.503Z,7.23
2022-11-09T05:06:33.060Z,7.22
2022-11-09T05:09:05.232Z,7.22
2022-11-09T05:11:34.590Z,7.21
2022-11-09T05:14:03.460Z,7.20
2022-11-09T05:16:31.461Z,7.20
2022-11-09T05:18:59.178Z,7.18
2022-11-09T05:21:27.798Z,7.18
2022-11-09T05:24:03.071Z,7.18
2022-11-09T05:26:36.995Z,7.17
2022-11-09T05:29:09.982Z,7.16
2022-11-09T05:31:39.307Z,7.15
2022-11-09T05:34:08.372Z,7.15
2022-11-09T05:36:36.176Z,7.12
2022-11-09T05:39:03.885Z,7.10
2022-11-09T05:41:31.603Z,7.08
2022-11-09T05:43:59.385Z,7.05
2022-11-09T05:46:27.217Z,7.03
2022-11-09T05:48:54.992Z,7.01
2022-11-09T05:51:23.060Z,7.00
2022-11-09T05:53:51.130Z,6.99
2022-11-09T05:56:19.032Z,6.98
2022-11-09T05:58:46.849Z,6.96
2022-11-09T06:01:18.974Z,6.98
2022-11-09T06:03:47.913Z,6.99
2022-11-09T06:06:18.079Z,7.03
2022-11-09T06:08:46.337Z,7.07
2022-11-09T06:11:19.893Z,7.12
2022-11-09T06:13:52.814Z,7.17
2022-11-09T06:16:21.412Z,7.23
2022-11-09T06:18:49.217Z,7.31
2022-11-09T06:21:16.988Z,7.39
2022-11-09T06:23:44.760Z,7.47
2022-11-09T06:26:13.506Z,7.55
2022-11-09T06:28:42.589Z,7.61
2022-11-09T06:31:13.759Z,7.67
2022-11-09T06:33:41.593Z,7.72
2022-11-09T06:36:11.604Z,7.76
2022-11-09T06:38:40.613Z,7.80
2022-11-09T06:41:09.970Z,7.84
2022-11-09T06:43:37.775Z,7.89
2022-11-09T06:46:05.761Z,7.95
2022-11-09T06:48:33.983Z,8.00
2022-11-09T06:51:03.409Z,8.04
2022-11-09T06:53:33.623Z,8.09
2022-11-09T06:56:03.465Z,8.12
2022-11-09T06:58:32.404Z,8.15
2022-11-09T07:01:00.272Z,8.20
2022-11-09T07:03:28.037Z,8.24
2022-11-09T07:05:56.006Z,8.28
2022-11-09T07:08:23.910Z,8.32
2022-11-09T07:10:51.785Z,8.36
2022-11-09T07:13:19.856Z,8.41
2022-11-09T07:15:54.279Z,8.46
2022-11-09T07:18:21.963Z,8.50
2022-11-09T07:20:50.324Z,8.55
2022-11-09T07:23:18.873Z,8.59
2022-11-09T07:25:49.732Z,8.63
2022-11-09T07:28:17.554Z,8.66
2022-11-09T07:30:45.388Z,8.70
2022-11-09T07:33:16.184Z,8.75
2022-11-09T07:35:44.203Z,8.80
2022-11-09T07:38:12.800Z,8.85
2022-11-09T07:40:41.097Z,8.90
2022-11-09T07:43:11.111Z,8.96
2022-11-09T07:45:39.903Z,9.02
2022-11-09T07:48:10.995Z,9.10
2022-11-09T07:50:40.774Z,9.16
2022-11-09T07:53:11.154Z,9.23
2022-11-09T07:55:39.381Z,9.31
2022-11-09T07:58:10.975Z,9.39
2022-11-09T08:00:41.251Z,9.48
2022-11-09T08:03:10.545Z,9.55
2022-11-09T08:05:39.742Z,9.63
2022-11-09T08:08:10.585Z,9.70
2022-11-09T08:10:39.784Z,9.78
2022-11-09T08:13:13.788Z,9.85
2022-11-09T08:15:42.281Z,9.92
2022-11-09T08:18:14.165Z,10.00
2022-11-09T08:20:41.970Z,10.08
2022-11-09T08:23:14.321Z,10.16
2022-11-09T08:25:42.425Z,10.24
2022-11-09T08:28:15.840Z,10.32
2022-11-09T08:30:45.195Z,10.42
2022-11-09T08:33:14.133Z,10.55
2022-11-09T08:35:41.917Z,10.71
2022-11-09T08:38:09.688Z,10.90
2022-11-09T08:40:38.023Z,11.13
2022-11-09T08:43:08.339Z,11.45
2022-11-09T08:45:38.400Z,11.76
2022-11-09T08:48:07.866Z,12.05
2022-11-09T08:50:38.272Z,12.34
2022-11-09T08:53:07.994Z,12.62
2022-11-09T08:55:36.845Z,12.90
2022-11-09T08:58:05.241Z,13.18
2022-11-09T09:00:33.305Z,13.30
2022-11-09T09:03:05.507Z,13.41
2022-11-09T09:05:35.390Z,13.70
2022-11-09T09:08:05.949Z,14.03
2022-11-09T09:10:35.874Z,14.42
2022-11-09T09:13:04.557Z,14.81
2022-11-09T09:15:33.414Z,15.12
2022-11-09T09:18:02.635Z,15.23
2022-11-09T09:20:31.044Z,15.11
2022-11-09T09:23:00.484Z,14.93
2022-11-09T09:25:28.663Z,14.61
2022-11-09T09:27:56.963Z,14.43
2022-11-09T09:30:24.796Z,14.36
2022-11-09T09:32:52.530Z,14.30
2022-11-09T09:35:20.382Z,14.28
2022-11-09T09:37:48.728Z,14.14
2022-11-09T09:40:43.760Z,14.10
2022-11-09T09:43:26.740Z,14.25
2022-11-09T09:45:55.043Z,14.32
2022-11-09T09:48:41.753Z,14.16
2022-11-09T09:51:37.288Z,13.97
2022-11-09T09:54:25.955Z,13.69
2022-11-09T09:56:59.997Z,13.70
2022-11-09T09:59:40.557Z,13.78
2022-11-09T10:02:29.764Z,13.84
2022-11-09T10:05:00.533Z,13.80
2022-11-09T10:07:45.563Z,13.73
2022-11-09T10:10:31.238Z,13.76
2022-11-09T10:13:27.278Z,13.79
2022-11-09T10:16:15.787Z,13.83
2022-11-09T10:19:28.881Z,13.82
2022-11-09T10:22:11.769Z,13.87
2022-11-09T10:25:12.927Z,13.75
2022-11-09T10:27:36.545Z,13.74
2022-11-09T10:30:19.490Z,13.76
2022-11-09T10:32:51.565Z,13.88
2022-11-09T10:35:24.453Z,13.99
2022-11-09T10:37:55.187Z,14.11
2022-11-09T10:40:26.025Z,14.10
2022-11-09T10:42:57.002Z,13.99
2022-11-09T10:45:37.720Z,14.01
2022-11-09T10:48:07.520Z,14.03
2022-11-09T10:50:54.486Z,14.02
2022-11-09T10:53:31.227Z,14.02
2022-11-09T10:56:04.684Z,14.04
2022-11-09T10:58:36.577Z,14.03
2022-11-09T11:01:13.680Z,14.14
2022-11-09T11:03:42.988Z,14.27
2022-11-09T11:06:23.177Z,14.38
2022-11-09T11:09:12.906Z,14.44
2022-11-09T11:11:40.926Z,14.18
2022-11-09T11:14:22.856Z,14.16
2022-11-09T11:16:53.284Z,14.10
2022-11-09T11:19:45.323Z,14.02
2022-11-09T11:22:14.208Z,13.83
2022-11-09T11:24:52.725Z,13.71
2022-11-09T11:27:38.259Z,13.62
2022-11-09T11:30:08.939Z,13.60
2022-11-09T11:32:36.677Z,13.57
2022-11-09T11:35:14.377Z,13.54
2022-11-09T11:37:47.889Z,13.54
2022-11-09T11:40:34.817Z,13.52
2022-11-09T11:43:26.147Z,13.42
2022-11-09T11:46:31.783Z,13.51
2022-11-09T11:49:24.830Z,13.49
2022-11-09T11:52:00.576Z,13.50
2022-11-09T11:55:00.599Z,13.54
2022-11-09T11:57:34.526Z,13.52
2022-11-09T12:00:15.469Z,13.51
2022-11-09T12:03:05.211Z,13.42
2022-11-09T12:05:48.281Z,13.32
2022-11-09T12:08:29.054Z,13.25
2022-11-09T12:11:08.393Z,13.17
2022-11-09T12:14:13.526Z,13.18
2022-11-09T12:16:49.372Z,13.24
2022-11-09T12:19:23.941Z,13.31
2022-11-09T12:22:25.249Z,13.38
2022-11-09T12:25:05.037Z,13.35
2022-11-09T12:27:59.869Z,13.33
2022-11-09T12:30:46.369Z,13.30
2022-11-09T12:33:33.491Z,13.29
2022-11-09T12:36:20.541Z,13.20
2022-11-09T12:39:15.018Z,13.10
2022-11-09T12:41:44.286Z,13.09
2022-11-09T12:44:19.942Z,13.11
2022-11-09T12:47:06.759Z,13.07
2022-11-09T12:49:38.098Z,13.04
2022-11-09T12:52:09.077Z,12.99
2022-11-09T12:54:41.397Z,12.94
2022-11-09T12:57:13.890Z,12.84
2022-11-09T12:59:48.963Z,12.68
2022-11-09T13:02:37.759Z,12.52
2022-11-09T13:05:26.400Z,12.36
2022-11-09T13:07:55.157Z,12.24
2022-11-09T13:10:42.071Z,12.18
2022-11-09T13:13:12.719Z,12.14
2022-11-09T13:16:05.817Z,12.10
2022-11-09T13:18:45.165Z,12.09
2022-11-09T13:21:22.558Z,12.12
2022-11-09T13:24:04.362Z,12.16
2022-11-09T13:26:33.863Z,12.19
2022-11-09T13:29:28.082Z,12.23
2022-11-09T13:32:12.500Z,12.28
2022-11-09T13:34:47.871Z,12.30
2022-11-09T13:37:40.826Z,12.35
2022-11-09T13:40:33.549Z,12.35
2022-11-09T13:43:10.305Z,12.31
2022-11-09T13:45:58.485Z,12.29
2022-11-09T13:48:43.043Z,12.27
2022-11-09T13:51:22.430Z,12.28
2022-11-09T13:54:00.820Z,12.27
2022-11-09T13:56:33.570Z,12.27
2022-11-09T13:59:28.154Z,12.29
2022-11-09T14:01:58.458Z,12.28
2022-11-09T14:04:29.293Z,12.25
2022-11-09T14:07:07.388Z,12.22
2022-11-09T14:09:52.490Z,12.19
2022-11-09T14:12:51.012Z,12.14
2022-11-09T14:15:46.553Z,12.13
2022-11-09T14:18:46.575Z,12.05
2022-11-09T14:21:36.507Z,11.98
2022-11-09T14:24:37.467Z,11.92
2022-11-09T14:27:11.159Z,11.89
2022-11-09T14:30:02.675Z,11.83
2022-11-09T14:32:36.883Z,11.79
2022-11-09T14:35:20.065Z,11.76
2022-11-09T14:37:49.757Z,11.73
2022-11-09T14:40:21.747Z,11.68
2022-11-09T14:42:57.342Z,11.63
2022-11-09T14:45:26.228Z,11.57
2022-11-09T14:47:58.043Z,11.51
2022-11-09T14:50:33.676Z,11.44
2022-11-09T14:53:03.571Z,11.39
2022-11-09T14:55:40.598Z,11.33
2022-11-09T14:58:14.231Z,11.28
2022-11-09T15:00:45.954Z,11.27
2022-11-09T15:03:30.996Z,11.23
2022-11-09T15:06:08.338Z,11.19
2022-11-09T15:08:40.415Z,11.15
2022-11-09T15:11:08.308Z,11.11
2022-11-09T15:13:39.351Z,11.07
2022-11-09T15:16:08.360Z,11.02
2022-11-09T15:18:44.951Z,10.97
2022-11-09T15:21:14.607Z,10.90
2022-11-09T15:23:45.972Z,10.86
2022-11-09T15:26:39.279Z,10.84
2022-11-09T15:29:40.213Z,10.80
2022-11-09T15:32:10.774Z,10.75
2022-11-09T15:34:43.507Z,10.71
2022-11-09T15:37:22.687Z,10.69
2022-11-09T15:39:51.447Z,10.67
2022-11-09T15:42:19.835Z,10.65
2022-11-09T15:44:55.749Z,10.63
2022-11-09T15:47:37.493Z,10.60
2022-11-09T15:50:19.119Z,10.55
2022-11-09T15:52:46.870Z,10.51
2022-11-09T15:55:17.333Z,10.49
2022-11-09T15:57:45.524Z,10.46
2022-11-09T16:00:19.751Z,10.44
2022-11-09T16:02:49.490Z,10.42
2022-11-09T16:05:18.542Z,10.39
2022-11-09T16:07:51.604Z,10.35
2022-11-09T16:10:23.210Z,10.32
2022-11-09T16:12:53.329Z,10.29
2022-11-09T16:15:21.024Z,10.27
2022-11-09T16:17:50.435Z,10.24
2022-11-09T16:20:20.141Z,10.19
2022-11-09T16:22:48.634Z,10.17
2022-11-09T16:25:17.004Z,10.13
2022-11-09T16:27:52.449Z,10.12
2022-11-09T16:30:21.610Z,10.09
2022-11-09T16:32:49.414Z,10.08
2022-11-09T16:35:27.205Z,10.06
2022-11-09T16:37:58.256Z,10.05
2022-11-09T16:40:27.847Z,10.03
2022-11-09T16:42:55.829Z,10.01
2022-11-09T16:45:25.910Z,9.98
2022-11-09T16:47:59.946Z,9.94
2022-11-09T16:50:27.718Z,9.92
2022-11-09T16:52:55.469Z,9.89
2022-11-09T16:55:23.171Z,9.88
2022-11-09T16:57:50.888Z,9.87
2022-11-09T17:00:23.288Z,9.87
2022-11-09T17:02:50.987Z,9.85
2022-11-09T17:05:18.786Z,9.83
2022-11-09T17:07:49.661Z,9.81
2022-11-09T17:10:17.484Z,9.81
2022-11-09T17:12:45.207Z,9.79
2022-11-09T17:15:13.026Z,9.77
2022-11-09T17:17:40.757Z,9.75
2022-11-09T17:20:09.267Z,9.73
2022-11-09T17:22:39.263Z,9.73
2022-11-09T17:25:11.112Z,9.71
2022-11-09T17:27:38.889Z,9.69
2022-11-09T17:30:07.951Z,9.67
2022-11-09T17:32:38.250Z,9.66
2022-11-09T17:35:06.039Z,9.66
2022-11-09T17:37:33.795Z,9.65
2022-11-09T17:40:01.530Z,9.65
2022-11-09T17:42:29.293Z,9.65
2022-11-09T17:44:57.494Z,9.64
2022-11-09T17:47:25.513Z,9.64
2022-11-09T17:49:53.284Z,9.64
2022-11-09T17:52:20.968Z,9.62
2022-11-09T17:54:48.687Z,9.62
2022-11-09T17:57:16.454Z,9.60
2022-11-09T17:59:44.172Z,9.60
2022-11-09T18:02:11.988Z,9.59
2022-11-09T18:04:39.797Z,9.57
2022-11-09T18:07:07.615Z,9.56
2022-11-09T18:09:41.450Z,9.55
2022-11-09T18:12:10.169Z,9.53
2022-11-09T18:14:37.852Z,9.53
2022-11-09T18:17:05.756Z,9.53
2022-11-09T18:19:33.567Z,9.52
2022-11-09T18:22:03.036Z,9.52
2022-11-09T18:24:33.193Z,9.51
2022-11-09T18:27:01.174Z,9.50
2022-11-09T18:29:29.090Z,9.50
2022-11-09T18:31:56.821Z,9.49
2022-11-09T18:34:27.283Z,9.50
2022-11-09T18:36:54.999Z,9.50
2022-11-09T18:39:22.863Z,9.50
2022-11-09T18:41:52.334Z,9.50
2022-11-09T18:44:20.651Z,9.48
2022-11-09T18:46:48.361Z,9.46
2022-11-09T18:49:17.969Z,9.44
2022-11-09T18:51:46.134Z,9.42
2022-11-09T18:54:13.997Z,9.42
2022-11-09T18:56:41.774Z,9.42
2022-11-09T18:59:12.615Z,9.40
2022-11-09T19:01:41.181Z,9.38
2022-11-09T19:04:16.239Z,9.38
2022-11-09T19:06:44.791Z,9.36
2022-11-09T19:09:30.113Z,9.36
2022-11-09T19:12:01.598Z,9.36
2022-11-09T19:14:29.855Z,9.35
2022-11-09T19:16:57.961Z,9.35
2022-11-09T19:19:27.283Z,9.35
2022-11-09T19:21:57.017Z,9.34
2022-11-09T19:24:26.710Z,9.33
2022-11-09T19:26:56.013Z,9.33
2022-11-09T19:29:23.775Z,9.32
2022-11-09T19:31:51.610Z,9.31
2022-11-09T19:34:21.457Z,9.31
2022-11-09T19:36:49.227Z,9.32
2022-11-09T19:39:18.185Z,9.32
2022-11-09T19:41:46.146Z,9.33
2022-11-09T19:44:14.988Z,9.33
2022-11-09T19:46:43.251Z,9.33
2022-11-09T19:49:11.828Z,9.33
2022-11-09T19:51:40.761Z,9.31
2022-11-09T19:54:11.885Z,9.32
2022-11-09T19:56:39.619Z,9.32
2022-11-09T19:59:10.224Z,9.31
2022-11-09T20:01:38.017Z,9.30
2022-11-09T20:04:10.075Z,9.30
2022-11-09T20:06:40.082Z,9.29
2022-11-09T20:09:07.942Z,9.29
2022-11-09T20:11:54.214Z,9.28
2022-11-09T20:14:22.291Z,9.29
2022-11-09T20:16:50.025Z,9.29
2022-11-09T20:19:17.776Z,9.30
2022-11-09T20:21:45.570Z,9.30
2022-11-09T20:24:14.599Z,9.31
2022-11-09T20:26:44.113Z,9.33
2022-11-09T20:29:12.071Z,9.33
2022-11-09T20:31:40.481Z,9.34
2022-11-09T20:34:09.294Z,9.33
2022-11-09T20:36:37.128Z,9.33
2022-11-09T20:39:05.382Z,9.32
2022-11-09T20:41:33.630Z,9.32
2022-11-09T20:44:01.351Z,9.33
2022-11-09T20:46:35.428Z,9.33
2022-11-09T20:49:04.709Z,9.33
2022-11-09T20:51:32.714Z,9.33
2022-11-09T20:54:06.647Z,9.33
2022-11-09T20:56:37.463Z,9.34
2022-11-09T20:59:05.632Z,9.33
2022-11-09T21:01:33.861Z,9.33
2022-11-09T21:04:01.789Z,9.33
2022-11-09T21:06:30.092Z,9.31
2022-11-09T21:09:00.482Z,9.31
2022-11-09T21:11:57.371Z,9.29
2022-11-09T21:14:25.196Z,9.27
2022-11-09T21:16:53.235Z,9.27
2022-11-09T21:19:21.051Z,9.27
2022-11-09T21:21:48.765Z,9.26
2022-11-09T21:24:35.300Z,9.25
2022-11-09T21:27:21.721Z,9.24
2022-11-09T21:29:52.105Z,9.23
2022-11-09T21:32:21.381Z,9.23
2022-11-09T21:34:51.069Z,9.22
2022-11-09T21:37:18.798Z,9.21
2022-11-09T21:39:46.902Z,9.21
2022-11-09T21:42:15.085Z,9.21
2022-11-09T21:44:42.852Z,9.20
2022-11-09T21:47:10.733Z,9.19
2022-11-09T21:49:38.496Z,9.19
2022-11-09T21:52:06.309Z,9.17
2022-11-09T21:54:34.030Z,9.15
2022-11-09T21:57:01.855Z,9.14
2022-11-09T21:59:29.540Z,9.11
2022-11-09T22:01:57.351Z,9.11
2022-11-09T22:04:25.166Z,9.11
2022-11-09T22:06:53.019Z,9.13
2022-11-09T22:09:20.756Z,9.14
2022-11-09T22:12:07.109Z,9.16
2022-11-09T22:14:53.645Z,9.17
2022-11-09T22:17:21.419Z,9.19
2022-11-09T22:20:21.422Z,9.19
2022-11-09T22:22:49.273Z,9.17
2022-11-09T22:25:17.055Z,9.15
2022-11-09T22:27:44.750Z,9.11
2022-11-09T22:30:13.044Z,9.07
2022-11-09T22:32:40.922Z,9.02
2022-11-09T22:35:09.078Z,8.95
2022-11-09T22:37:36.763Z,8.90
2022-11-09T22:40:05.730Z,8.86
2022-11-09T22:42:33.848Z,8.84
2022-11-09T22:45:01.797Z,8.80
2022-11-09T22:47:29.756Z,8.80
2022-11-09T22:49:57.450Z,8.81
2022-11-09T22:52:25.167Z,8.82
2022-11-09T22:54:52.868Z,8.82
2022-11-09T22:57:21.238Z,8.82
2022-11-09T22:59:49.089Z,8.83
2022-11-09T23:02:16.754Z,8.81
2022-11-09T23:04:44.615Z,8.80
2022-11-09T23:07:12.481Z,8.80
2022-11-09T23:09:40.244Z,8.80
2022-11-09T23:12:08.910Z,8.84
2022-11-09T23:14:55.295Z,8.85
2022-11-09T23:17:41.546Z,8.88
2022-11-09T23:20:10.828Z,8.89
2022-11-09T23:22:38.594Z,8.90
2022-11-09T23:25:25.639Z,8.91
2022-11-09T23:27:53.864Z,8.92
2022-11-09T23:30:22.370Z,8.92
2022-11-09T23:32:50.126Z,8.94
2022-11-09T23:35:19.021Z,8.97
2022-11-09T23:37:46.786Z,8.98
2022-11-09T23:40:14.595Z,9.00
2022-11-09T23:42:42.320Z,9.00
2022-11-09T23:45:10.379Z,9.01
2022-11-09T23:47:38.241Z,9.02
2022-11-09T23:50:07.058Z,9.03
2022-11-09T23:52:35.292Z,9.04
2022-11-09T23:55:03.253Z,9.05
2022-11-09T23:57:31.006Z,9.07
2022-11-09T23:59:58.798Z,9.10
